KMVE

Montevideo-Chippewa County Airport

Montevideo, Minnesota, USA
METAR KMVE 212315Z AUTO 03010KT 10SM CLR 22/07 A3018 RMK AO2
Observed Flight Rules
Aug-21 @ 23:15 UTC (30 minutes ago) Visual Flight Rules
Wind Visibility Clouds
30° at 10 knots 10 miles
  • Clear skies
Temperatures Readings
Current 22°C / 72°F
Dewpoint 7°C / 45°F
Humidity 38%
Altimeter 30.18" Hg
Pressure 1022 hPa
Elevation 315
METAR KMVE 212315Z AUTO 03010KT 10SM CLR 22/07 A3018 RMK AO2
Observed Flight Rules
Aug-21 @ 23:15 UTC
(30 minutes ago)
VFR
Wind Visibility
30° at 10 knots 10 miles
Clouds
  • Clear skies
Temperature Dewpoint
22°C / 72°F 7°C / 45°F
Humidity Altimeter Pressure
38% 30.18" Hg 1022 hPa